Time;durP1;ratioP1;P1;durP2;ratioP2;P2;SDS_P1;SDS_P2;PMS_P1;PMS_P2;Temp;Humidity;BMP_temperature;BMP_pressure;BME280_temperature;BME280_humidity;BME280_pressure;Samples;Min_cycle;Max_cycle;Signal;HPM_P1;HPM_P2
2023/05/24 00:00:05;;;;;;;23.10;20.90;;;;;;;-128.00;-1.00;-1.00;105857;1251;1004114;-76
2023/05/24 00:02:51;;;;;;;22.00;19.90;;;;;;;-128.00;-1.00;-1.00;105777;1252;1061599;-76
2023/05/24 00:05:18;;;;;;;22.20;20.20;;;;;;;-128.00;-1.00;-1.00;105788;1251;1004944;-76
2023/05/24 00:07:45;;;;;;;24.30;21.80;;;;;;;-128.00;-1.00;-1.00;105758;1251;1003784;-76
2023/05/24 00:10:11;;;;;;;23.80;21.50;;;;;;;-128.00;-1.00;-1.00;105750;1251;1003883;-76
2023/05/24 00:12:38;;;;;;;24.50;22.20;;;;;;;-128.00;-1.00;-1.00;105777;1251;1003661;-76
2023/05/24 00:15:05;;;;;;;23.10;20.90;;;;;;;-128.00;-1.00;-1.00;105726;1252;1005149;-76
2023/05/24 00:17:33;;;;;;;24.70;22.50;;;;;;;-128.00;-1.00;-1.00;105506;1251;1003832;-77
2023/05/24 00:19:59;;;;;;;22.80;20.60;;;;;;;-128.00;-1.00;-1.00;105764;1251;1004793;-77
2023/05/24 00:22:26;;;;;;;24.70;22.30;;;;;;;-128.00;-1.00;-1.00;105762;1252;1004436;-76
2023/05/24 00:24:52;;;;;;;25.00;22.70;;;;;;;-128.00;-1.00;-1.00;105723;1251;1004621;-74
2023/05/24 00:27:19;;;;;;;23.80;21.60;;;;;;;-128.00;-1.00;-1.00;105720;1251;1004850;-75
2023/05/24 00:29:45;;;;;;;25.60;23.30;;;;;;;-128.00;-1.00;-1.00;105740;1251;1003903;-75
2023/05/24 00:32:12;;;;;;;25.40;23.00;;;;;;;-128.00;-1.00;-1.00;105726;1251;1004528;-75
2023/05/24 00:34:38;;;;;;;23.30;21.20;;;;;;;-128.00;-1.00;-1.00;105784;1252;1003964;-75
2023/05/24 00:37:06;;;;;;;25.80;23.40;;;;;;;-128.00;-1.00;-1.00;105728;1251;1005530;-77
2023/05/24 00:39:32;;;;;;;26.10;23.60;;;;;;;-128.00;-1.00;-1.00;105790;1251;1003258;-75
2023/05/24 00:41:59;;;;;;;25.00;22.70;;;;;;;-128.00;-1.00;-1.00;105755;1251;1003913;-76
2023/05/24 00:44:25;;;;;;;23.20;21.10;;;;;;;-128.00;-1.00;-1.00;105732;1251;1004598;-75
2023/05/24 00:46:52;;;;;;;25.50;23.10;;;;;;;-128.00;-1.00;-1.00;105740;1251;1004029;-75
2023/05/24 00:49:18;;;;;;;24.80;22.30;;;;;;;-128.00;-1.00;-1.00;105560;1251;1003637;-75
2023/05/24 00:51:45;;;;;;;26.20;23.80;;;;;;;-128.00;-1.00;-1.00;105808;1251;1004558;-75
2023/05/24 00:54:13;;;;;;;25.30;22.90;;;;;;;-128.00;-1.00;-1.00;105491;1251;1004726;-75
2023/05/24 00:56:41;;;;;;;25.60;23.10;;;;;;;-128.00;-1.00;-1.00;105736;1251;1004384;-75
2023/05/24 00:59:08;;;;;;;27.30;24.60;;;;;;;-128.00;-1.00;-1.00;105777;1251;1004237;-76
2023/05/24 01:01:36;;;;;;;25.70;23.40;;;;;;;-128.00;-1.00;-1.00;105756;1252;1005079;-76
2023/05/24 01:04:03;;;;;;;24.70;22.30;;;;;;;-128.00;-1.00;-1.00;105726;1251;1004921;-77
2023/05/24 01:06:31;;;;;;;26.90;24.30;;;;;;;-128.00;-1.00;-1.00;105742;1251;1004040;-76
2023/05/24 01:09:23;;;;;;;27.40;24.80;;;;;;;-128.00;-1.00;-1.00;105743;1251;1059177;-76
2023/05/24 01:12:07;;;;;;;26.70;24.00;;;;;;;-128.00;-1.00;-1.00;105106;1261;1046930;-75
2023/05/24 01:14:46;;;;;;;26.70;24.20;;;;;;;-128.00;-1.00;-1.00;105096;1260;1049544;-75
2023/05/24 01:17:20;;;;;;;27.50;24.80;;;;;;;-128.00;-1.00;-1.00;105125;1260;1061787;-76
2023/05/24 01:20:05;;;;;;;27.20;24.60;;;;;;;-128.00;-1.00;-1.00;105129;1261;1055537;-76
2023/05/24 01:22:47;;;;;;;32.40;29.30;;;;;;;-128.00;-1.00;-1.00;105090;1260;1059787;-75
2023/05/24 01:25:36;;;;;;;34.30;31.00;;;;;;;-128.00;-1.00;-1.00;105077;1261;1046912;-75
2023/05/24 01:28:03;;;;;;;35.30;31.70;;;;;;;-128.00;-1.00;-1.00;105113;1261;1047325;-74
2023/05/24 01:30:29;;;;;;;37.50;34.00;;;;;;;-128.00;-1.00;-1.00;105099;1260;1005449;-76
2023/05/24 01:32:56;;;;;;;40.20;36.40;;;;;;;-128.00;-1.00;-1.00;105108;1260;1004649;-75
2023/05/24 01:35:23;;;;;;;38.30;34.40;;;;;;;-128.00;-1.00;-1.00;105085;1260;1004359;-75
2023/05/24 01:37:49;;;;;;;34.90;31.70;;;;;;;-128.00;-1.00;-1.00;105104;1260;1004192;-76
2023/05/24 01:40:16;;;;;;;32.50;29.70;;;;;;;-128.00;-1.00;-1.00;104990;1260;1004819;-75
2023/05/24 01:42:54;;;;;;;31.50;28.60;;;;;;;-128.00;-1.00;-1.00;105088;1260;1004263;-75
2023/05/24 01:45:38;;;;;;;32.90;29.80;;;;;;;-128.00;-1.00;-1.00;105116;1260;1055244;-75
2023/05/24 01:48:17;;;;;;;31.60;28.60;;;;;;;-128.00;-1.00;-1.00;105127;1251;1059919;-75
2023/05/24 01:50:50;;;;;;;32.60;29.60;;;;;;;-128.00;-1.00;-1.00;105722;1251;1046031;-75
2023/05/24 01:53:18;;;;;;;32.90;29.70;;;;;;;-128.00;-1.00;-1.00;105687;1253;1048927;-75
2023/05/24 01:55:50;;;;;;;31.30;28.30;;;;;;;-128.00;-1.00;-1.00;105737;1251;1004033;-75
2023/05/24 01:58:21;;;;;;;33.20;29.90;;;;;;;-128.00;-1.00;-1.00;105640;1251;1055589;-76
2023/05/24 02:00:49;;;;;;;32.90;29.90;;;;;;;-128.00;-1.00;-1.00;105742;1251;1058435;-75
2023/05/24 02:03:16;;;;;;;31.90;28.80;;;;;;;-128.00;-1.00;-1.00;105762;1251;1004468;-75
2023/05/24 02:05:44;;;;;;;34.20;31.00;;;;;;;-128.00;-1.00;-1.00;105738;1251;1003825;-75
2023/05/24 02:08:11;;;;;;;34.60;31.10;;;;;;;-128.00;-1.00;-1.00;105734;1252;1004930;-76
2023/05/24 02:10:39;;;;;;;35.40;31.90;;;;;;;-128.00;-1.00;-1.00;105744;1251;1003871;-76
2023/05/24 02:13:06;;;;;;;36.30;32.80;;;;;;;-128.00;-1.00;-1.00;105740;1251;1003632;-75
2023/05/24 02:15:36;;;;;;;36.90;33.50;;;;;;;-128.00;-1.00;-1.00;105726;1251;1004306;-75
2023/05/24 02:18:03;;;;;;;36.00;32.40;;;;;;;-128.00;-1.00;-1.00;105763;1253;1046289;-75
2023/05/24 02:20:30;;;;;;;33.90;30.60;;;;;;;-128.00;-1.00;-1.00;105565;1253;1004668;-76
2023/05/24 02:22:56;;;;;;;35.60;32.20;;;;;;;-128.00;-1.00;-1.00;105721;1251;1003504;-75
2023/05/24 02:25:23;;;;;;;35.90;32.50;;;;;;;-128.00;-1.00;-1.00;105779;1251;1004173;-76
2023/05/24 02:27:49;;;;;;;34.60;31.50;;;;;;;-128.00;-1.00;-1.00;105729;1251;1003920;-76
2023/05/24 02:30:16;;;;;;;34.10;31.00;;;;;;;-128.00;-1.00;-1.00;105702;1251;1005047;-76
2023/05/24 02:32:42;;;;;;;35.20;31.80;;;;;;;-128.00;-1.00;-1.00;105729;1252;1003838;-76
2023/05/24 02:35:09;;;;;;;33.60;30.60;;;;;;;-128.00;-1.00;-1.00;105778;1251;1003669;-77
2023/05/24 02:37:36;;;;;;;33.10;29.90;;;;;;;-128.00;-1.00;-1.00;105721;1251;1004503;-77
2023/05/24 02:40:03;;;;;;;34.70;31.50;;;;;;;-128.00;-1.00;-1.00;105754;1251;1004599;-77
2023/05/24 02:42:29;;;;;;;32.70;29.80;;;;;;;-128.00;-1.00;-1.00;105741;1251;1005124;-75
2023/05/24 02:44:56;;;;;;;34.00;30.90;;;;;;;-128.00;-1.00;-1.00;105695;1251;1004401;-75
2023/05/24 02:47:22;;;;;;;34.50;31.20;;;;;;;-128.00;-1.00;-1.00;105740;1251;1003809;-75
2023/05/24 02:49:49;;;;;;;34.00;31.00;;;;;;;-128.00;-1.00;-1.00;105746;1252;1004194;-76
2023/05/24 02:52:20;;;;;;;34.60;31.30;;;;;;;-128.00;-1.00;-1.00;105709;1253;1003381;-75
2023/05/24 02:54:46;;;;;;;33.20;29.90;;;;;;;-128.00;-1.00;-1.00;105447;1251;1048408;-74
2023/05/24 02:57:13;;;;;;;34.20;31.10;;;;;;;-128.00;-1.00;-1.00;105757;1251;1004483;-75
2023/05/24 02:59:39;;;;;;;33.20;30.10;;;;;;;-128.00;-1.00;-1.00;105758;1251;1004073;-75
2023/05/24 03:02:06;;;;;;;31.70;28.90;;;;;;;-128.00;-1.00;-1.00;105784;1251;1004631;-75
2023/05/24 03:04:32;;;;;;;33.50;30.50;;;;;;;-128.00;-1.00;-1.00;105714;1251;1004843;-75
2023/05/24 03:06:59;;;;;;;33.50;30.50;;;;;;;-128.00;-1.00;-1.00;105767;1251;1003481;-74
2023/05/24 03:09:26;;;;;;;33.00;30.10;;;;;;;-128.00;-1.00;-1.00;105760;1251;1004119;-75
2023/05/24 03:11:53;;;;;;;33.30;30.10;;;;;;;-128.00;-1.00;-1.00;105767;1253;1004111;-75
2023/05/24 03:14:22;;;;;;;32.10;29.20;;;;;;;-128.00;-1.00;-1.00;105712;1253;1005911;-74
2023/05/24 03:16:49;;;;;;;33.00;30.10;;;;;;;-128.00;-1.00;-1.00;105744;1251;1046041;-75
2023/05/24 03:19:16;;;;;;;33.50;30.30;;;;;;;-128.00;-1.00;-1.00;105763;1253;1004842;-75
2023/05/24 03:21:43;;;;;;;34.40;31.30;;;;;;;-128.00;-1.00;-1.00;105521;1251;1003925;-75
2023/05/24 03:24:11;;;;;;;32.60;29.60;;;;;;;-128.00;-1.00;-1.00;105779;1251;1004225;-76
2023/05/24 03:26:39;;;;;;;32.90;29.90;;;;;;;-128.00;-1.00;-1.00;105751;1251;1059072;-75
2023/05/24 03:29:06;;;;;;;35.10;32.00;;;;;;;-128.00;-1.00;-1.00;105716;1254;1003535;-76
2023/05/24 03:31:32;;;;;;;35.70;32.30;;;;;;;-128.00;-1.00;-1.00;105775;1251;1005107;-75
2023/05/24 03:33:59;;;;;;;36.00;32.50;;;;;;;-128.00;-1.00;-1.00;105734;1251;1004432;-75
2023/05/24 03:36:26;;;;;;;40.10;36.10;;;;;;;-128.00;-1.00;-1.00;105773;1251;1004101;-75
2023/05/24 03:38:53;;;;;;;39.40;35.40;;;;;;;-128.00;-1.00;-1.00;105741;1251;1005145;-74
2023/05/24 03:41:20;;;;;;;40.20;36.20;;;;;;;-128.00;-1.00;-1.00;105742;1251;1003590;-75
2023/05/24 03:43:46;;;;;;;38.70;34.80;;;;;;;-128.00;-1.00;-1.00;105788;1251;1003997;-75
2023/05/24 03:46:13;;;;;;;38.70;34.60;;;;;;;-128.00;-1.00;-1.00;105757;1251;1006033;-75
2023/05/24 03:48:40;;;;;;;38.90;34.70;;;;;;;-128.00;-1.00;-1.00;105447;1251;1004367;-75
2023/05/24 03:51:08;;;;;;;39.30;35.20;;;;;;;-128.00;-1.00;-1.00;105692;1251;1004048;-76
2023/05/24 03:53:34;;;;;;;39.10;35.20;;;;;;;-128.00;-1.00;-1.00;105536;1251;1004018;-78
2023/05/24 03:56:01;;;;;;;37.40;33.60;;;;;;;-128.00;-1.00;-1.00;105705;1251;1004225;-76
2023/05/24 03:58:27;;;;;;;38.00;34.30;;;;;;;-128.00;-1.00;-1.00;105742;1251;1005616;-77
2023/05/24 04:00:54;;;;;;;38.20;34.40;;;;;;;-128.00;-1.00;-1.00;105799;1251;1004028;-76
2023/05/24 04:03:20;;;;;;;36.00;32.30;;;;;;;-128.00;-1.00;-1.00;105697;1251;1004402;-76
2023/05/24 04:05:47;;;;;;;37.40;32.90;;;;;;;-128.00;-1.00;-1.00;105721;1251;1004669;-76
2023/05/24 04:08:14;;;;;;;35.00;31.50;;;;;;;-128.00;-1.00;-1.00;105480;1254;1004658;-76
2023/05/24 04:10:40;;;;;;;35.20;31.70;;;;;;;-128.00;-1.00;-1.00;105728;1251;1004257;-77
2023/05/24 04:13:07;;;;;;;35.20;31.80;;;;;;;-128.00;-1.00;-1.00;105732;1251;1004954;-75
2023/05/24 04:15:35;;;;;;;34.20;30.80;;;;;;;-128.00;-1.00;-1.00;105700;1251;1004022;-75
2023/05/24 04:18:01;;;;;;;36.10;32.40;;;;;;;-128.00;-1.00;-1.00;105764;1251;1003262;-75
2023/05/24 04:20:28;;;;;;;32.60;29.40;;;;;;;-128.00;-1.00;-1.00;105489;1251;1004601;-76
2023/05/24 04:22:55;;;;;;;34.90;31.30;;;;;;;-128.00;-1.00;-1.00;105500;1260;1004332;-76
2023/05/24 04:25:21;;;;;;;32.80;29.60;;;;;;;-128.00;-1.00;-1.00;105718;1251;1003689;-76
2023/05/24 04:27:49;;;;;;;31.50;28.30;;;;;;;-128.00;-1.00;-1.00;105691;1251;1003968;-76
2023/05/24 04:30:15;;;;;;;31.20;28.10;;;;;;;-128.00;-1.00;-1.00;105693;1251;1004619;-76
2023/05/24 04:32:45;;;;;;;31.80;28.80;;;;;;;-128.00;-1.00;-1.00;105684;1255;1004187;-75
2023/05/24 04:35:12;;;;;;;31.10;28.20;;;;;;;-128.00;-1.00;-1.00;105582;1251;1062841;-75
2023/05/24 04:37:39;;;;;;;32.20;28.80;;;;;;;-128.00;-1.00;-1.00;105715;1251;1003196;-76
2023/05/24 04:40:07;;;;;;;30.20;27.40;;;;;;;-128.00;-1.00;-1.00;105699;1255;1004142;-76
2023/05/24 04:42:34;;;;;;;32.20;28.70;;;;;;;-128.00;-1.00;-1.00;105698;1251;1003828;-75
2023/05/24 04:45:01;;;;;;;31.10;27.90;;;;;;;-128.00;-1.00;-1.00;105689;1251;1004706;-75
2023/05/24 04:47:28;;;;;;;30.00;27.30;;;;;;;-128.00;-1.00;-1.00;105662;1251;1004830;-76
2023/05/24 04:49:54;;;;;;;30.10;27.20;;;;;;;-128.00;-1.00;-1.00;105724;1251;1003781;-75
2023/05/24 04:52:21;;;;;;;27.50;24.60;;;;;;;-128.00;-1.00;-1.00;105699;1251;1004843;-75
2023/05/24 04:54:48;;;;;;;28.70;25.80;;;;;;;-128.00;-1.00;-1.00;105673;1251;1004720;-76
2023/05/24 04:57:15;;;;;;;28.60;25.70;;;;;;;-128.00;-1.00;-1.00;105732;1251;1004095;-76
2023/05/24 04:59:42;;;;;;;29.30;26.40;;;;;;;-128.00;-1.00;-1.00;105705;1251;1003920;-76
2023/05/24 05:02:08;;;;;;;28.20;25.60;;;;;;;-128.00;-1.00;-1.00;105686;1251;1003899;-76
2023/05/24 05:04:35;;;;;;;29.30;26.50;;;;;;;-128.00;-1.00;-1.00;105665;1252;1005153;-76
2023/05/24 05:07:02;;;;;;;27.70;25.10;;;;;;;-128.00;-1.00;-1.00;105676;1251;1003478;-76
2023/05/24 05:09:29;;;;;;;30.20;27.10;;;;;;;-128.00;-1.00;-1.00;105740;1251;1004629;-75
2023/05/24 05:11:55;;;;;;;29.00;26.10;;;;;;;-128.00;-1.00;-1.00;105718;1251;1004603;-76
2023/05/24 05:14:22;;;;;;;25.10;22.60;;;;;;;-128.00;-1.00;-1.00;105721;1252;1004427;-76
2023/05/24 05:16:48;;;;;;;27.60;24.70;;;;;;;-128.00;-1.00;-1.00;105726;1251;1004783;-76
2023/05/24 05:19:15;;;;;;;26.60;24.00;;;;;;;-128.00;-1.00;-1.00;105665;1251;1004799;-75
2023/05/24 05:21:41;;;;;;;25.40;21.90;;;;;;;-128.00;-1.00;-1.00;105717;1251;1004274;-75
2023/05/24 05:24:08;;;;;;;24.70;22.10;;;;;;;-128.00;-1.00;-1.00;105724;1256;1004024;-75
2023/05/24 05:26:35;;;;;;;23.80;21.30;;;;;;;-128.00;-1.00;-1.00;105760;1251;1004226;-75
2023/05/24 05:29:01;;;;;;;23.90;21.60;;;;;;;-128.00;-1.00;-1.00;105685;1251;1003870;-75
2023/05/24 05:31:28;;;;;;;19.20;17.30;;;;;;;-128.00;-1.00;-1.00;105684;1251;1004102;-75
2023/05/24 05:33:55;;;;;;;21.00;18.80;;;;;;;-128.00;-1.00;-1.00;105721;1251;1005223;-75
2023/05/24 05:36:21;;;;;;;17.40;15.90;;;;;;;-128.00;-1.00;-1.00;105713;1251;1004050;-75
2023/05/24 05:38:47;;;;;;;15.10;13.80;;;;;;;-128.00;-1.00;-1.00;105703;1251;1004956;-75
2023/05/24 05:41:14;;;;;;;13.70;12.30;;;;;;;-128.00;-1.00;-1.00;105718;1251;1003549;-75
2023/05/24 05:43:41;;;;;;;13.20;11.90;;;;;;;-128.00;-1.00;-1.00;105696;1251;1004650;-75
2023/05/24 05:46:07;;;;;;;12.60;11.50;;;;;;;-128.00;-1.00;-1.00;105694;1251;1004076;-75
2023/05/24 05:48:33;;;;;;;11.00;10.00;;;;;;;-128.00;-1.00;-1.00;105689;1251;1003682;-75
2023/05/24 05:51:00;;;;;;;13.10;11.80;;;;;;;-128.00;-1.00;-1.00;105702;1251;1003889;-75
2023/05/24 05:53:26;;;;;;;16.20;14.60;;;;;;;-128.00;-1.00;-1.00;105732;1251;1004048;-76
2023/05/24 05:55:53;;;;;;;18.60;16.60;;;;;;;-128.00;-1.00;-1.00;105719;1251;1004532;-75
2023/05/24 05:58:19;;;;;;;19.80;17.90;;;;;;;-128.00;-1.00;-1.00;105706;1251;1004309;-75
2023/05/24 06:00:46;;;;;;;19.30;17.40;;;;;;;-128.00;-1.00;-1.00;105642;1251;1004195;-75
2023/05/24 06:03:12;;;;;;;18.10;16.30;;;;;;;-128.00;-1.00;-1.00;105693;1251;1005204;-75
2023/05/24 06:05:39;;;;;;;17.50;15.80;;;;;;;-128.00;-1.00;-1.00;105658;1251;1005204;-75
2023/05/24 06:08:06;;;;;;;16.10;14.50;;;;;;;-128.00;-1.00;-1.00;105708;1251;1004718;-75
2023/05/24 06:10:32;;;;;;;16.90;15.20;;;;;;;-128.00;-1.00;-1.00;105667;1251;1003636;-76
2023/05/24 06:13:01;;;;;;;15.70;14.20;;;;;;;-128.00;-1.00;-1.00;105536;1251;1004539;-75
2023/05/24 06:15:28;;;;;;;14.90;13.30;;;;;;;-128.00;-1.00;-1.00;105708;1251;1056602;-75
2023/05/24 06:17:54;;;;;;;15.70;13.70;;;;;;;-128.00;-1.00;-1.00;105747;1251;1004536;-75
2023/05/24 06:20:22;;;;;;;17.00;15.20;;;;;;;-128.00;-1.00;-1.00;105701;1251;1004778;-76
2023/05/24 06:22:49;;;;;;;16.00;14.10;;;;;;;-128.00;-1.00;-1.00;105762;1251;1004825;-76
2023/05/24 06:25:18;;;;;;;16.30;14.10;;;;;;;-128.00;-1.00;-1.00;105694;1251;1004760;-71
2023/05/24 06:27:45;;;;;;;11.90;10.70;;;;;;;-128.00;-1.00;-1.00;105735;1251;1056745;-71
2023/05/24 06:30:12;;;;;;;13.10;11.70;;;;;;;-128.00;-1.00;-1.00;105670;1251;1005708;-71
2023/05/24 06:32:38;;;;;;;14.70;13.20;;;;;;;-128.00;-1.00;-1.00;105716;1251;1004073;-70
2023/05/24 06:35:06;;;;;;;14.80;13.40;;;;;;;-128.00;-1.00;-1.00;105706;1251;1004612;-71
2023/05/24 06:37:33;;;;;;;12.60;11.30;;;;;;;-128.00;-1.00;-1.00;105661;1251;1004137;-71
2023/05/24 06:40:00;;;;;;;9.30;8.40;;;;;;;-128.00;-1.00;-1.00;105514;1251;1004648;-71
2023/05/24 06:42:26;;;;;;;9.10;8.30;;;;;;;-128.00;-1.00;-1.00;105657;1251;1004402;-71
2023/05/24 06:44:53;;;;;;;7.70;7.00;;;;;;;-128.00;-1.00;-1.00;105687;1251;1004275;-72
2023/05/24 06:47:20;;;;;;;8.20;7.50;;;;;;;-128.00;-1.00;-1.00;105641;1251;1004181;-72
2023/05/24 06:49:47;;;;;;;8.80;8.00;;;;;;;-128.00;-1.00;-1.00;105793;1251;1004489;-72
2023/05/24 06:52:14;;;;;;;10.40;9.40;;;;;;;-128.00;-1.00;-1.00;105618;1251;1004468;-71
2023/05/24 06:54:40;;;;;;;10.10;9.20;;;;;;;-128.00;-1.00;-1.00;105855;1250;1004917;-80
2023/05/24 06:57:08;;;;;;;10.30;9.30;;;;;;;-128.00;-1.00;-1.00;105752;1251;1004301;-75
2023/05/24 06:59:34;;;;;;;9.60;8.50;;;;;;;-128.00;-1.00;-1.00;105745;1251;1004690;-75
2023/05/24 07:02:01;;;;;;;9.60;8.60;;;;;;;-128.00;-1.00;-1.00;105734;1251;1004264;-74
2023/05/24 07:04:28;;;;;;;9.50;8.40;;;;;;;-128.00;-1.00;-1.00;105718;1251;1004941;-73
2023/05/24 07:06:54;;;;;;;8.00;7.30;;;;;;;-128.00;-1.00;-1.00;105717;1251;1004883;-75
2023/05/24 07:09:21;;;;;;;7.40;6.80;;;;;;;-128.00;-1.00;-1.00;105730;1251;1004448;-74
2023/05/24 07:11:47;;;;;;;7.40;6.60;;;;;;;-128.00;-1.00;-1.00;105679;1251;1004402;-73
2023/05/24 07:14:14;;;;;;;7.80;7.00;;;;;;;-128.00;-1.00;-1.00;105697;1251;1004731;-74
2023/05/24 07:16:40;;;;;;;6.90;6.40;;;;;;;-128.00;-1.00;-1.00;105717;1251;1004349;-74
2023/05/24 07:19:07;;;;;;;7.10;6.60;;;;;;;-128.00;-1.00;-1.00;105662;1251;1004773;-75
2023/05/24 07:21:34;;;;;;;6.80;6.20;;;;;;;-128.00;-1.00;-1.00;105670;1251;1004756;-75
2023/05/24 07:24:02;;;;;;;6.70;6.10;;;;;;;-128.00;-1.00;-1.00;105733;1251;1004606;-74
2023/05/24 07:26:29;;;;;;;6.80;6.00;;;;;;;-128.00;-1.00;-1.00;105692;1251;1062518;-75
2023/05/24 07:28:55;;;;;;;7.50;6.80;;;;;;;-128.00;-1.00;-1.00;105424;1251;1004513;-74
2023/05/24 07:31:22;;;;;;;8.30;7.60;;;;;;;-128.00;-1.00;-1.00;105699;1251;1004043;-71
2023/05/24 07:33:48;;;;;;;7.80;6.70;;;;;;;-128.00;-1.00;-1.00;105686;1251;1005115;-72
2023/05/24 07:36:15;;;;;;;8.80;7.90;;;;;;;-128.00;-1.00;-1.00;105725;1251;1004663;-72
2023/05/24 07:38:42;;;;;;;8.80;7.90;;;;;;;-128.00;-1.00;-1.00;105731;1251;1004585;-72
2023/05/24 07:41:08;;;;;;;8.40;7.70;;;;;;;-128.00;-1.00;-1.00;105709;1251;1004386;-72
2023/05/24 07:43:36;;;;;;;9.50;8.70;;;;;;;-128.00;-1.00;-1.00;105694;1251;1005547;-73
2023/05/24 07:46:03;;;;;;;10.60;9.70;;;;;;;-128.00;-1.00;-1.00;105731;1251;1003583;-72
2023/05/24 07:48:29;;;;;;;10.70;9.70;;;;;;;-128.00;-1.00;-1.00;105650;1251;1004903;-71
2023/05/24 07:50:56;;;;;;;10.50;9.70;;;;;;;-128.00;-1.00;-1.00;105691;1251;1003251;-72
2023/05/24 07:53:22;;;;;;;11.20;10.20;;;;;;;-128.00;-1.00;-1.00;105719;1251;1004273;-73
2023/05/24 07:55:49;;;;;;;12.40;9.70;;;;;;;-128.00;-1.00;-1.00;105693;1251;1004415;-72
2023/05/24 07:58:16;;;;;;;10.10;9.30;;;;;;;-128.00;-1.00;-1.00;105661;1251;1004078;-72
2023/05/24 08:00:42;;;;;;;11.10;10.10;;;;;;;-128.00;-1.00;-1.00;105663;1251;1004613;-73
2023/05/24 08:03:12;;;;;;;11.60;10.50;;;;;;;-128.00;-1.00;-1.00;105670;1251;1004212;-73
2023/05/24 08:05:39;;;;;;;12.00;10.80;;;;;;;-128.00;-1.00;-1.00;105724;1251;1056219;-72
2023/05/24 08:08:05;;;;;;;10.80;9.80;;;;;;;-128.00;-1.00;-1.00;105676;1251;1004579;-73
2023/05/24 08:10:32;;;;;;;12.50;11.30;;;;;;;-128.00;-1.00;-1.00;105409;1251;1004384;-72
2023/05/24 08:12:58;;;;;;;14.50;13.20;;;;;;;-128.00;-1.00;-1.00;105708;1251;1004455;-72
2023/05/24 08:15:25;;;;;;;16.00;14.60;;;;;;;-128.00;-1.00;-1.00;105714;1251;1004894;-72
2023/05/24 08:17:51;;;;;;;16.30;14.90;;;;;;;-128.00;-1.00;-1.00;105726;1251;1003518;-71
2023/05/24 08:20:18;;;;;;;17.00;15.40;;;;;;;-128.00;-1.00;-1.00;105725;1251;1003867;-72
2023/05/24 08:22:44;;;;;;;16.60;15.20;;;;;;;-128.00;-1.00;-1.00;105701;1251;1005021;-72
2023/05/24 08:25:11;;;;;;;14.80;13.50;;;;;;;-128.00;-1.00;-1.00;105711;1251;1005139;-72
2023/05/24 08:27:37;;;;;;;14.50;13.30;;;;;;;-128.00;-1.00;-1.00;105719;1251;1004032;-71
2023/05/24 08:30:06;;;;;;;14.30;13.00;;;;;;;-128.00;-1.00;-1.00;105716;1251;1004521;-72
2023/05/24 08:32:33;;;;;;;13.40;12.30;;;;;;;-128.00;-1.00;-1.00;105656;1251;1004191;-72
2023/05/24 08:34:59;;;;;;;15.00;13.70;;;;;;;-128.00;-1.00;-1.00;105724;1251;1004769;-73
2023/05/24 08:37:27;;;;;;;15.50;14.10;;;;;;;-128.00;-1.00;-1.00;105732;1251;1003192;-72
2023/05/24 08:39:53;;;;;;;17.20;15.30;;;;;;;-128.00;-1.00;-1.00;105727;1251;1004295;-72
2023/05/24 08:42:20;;;;;;;16.40;14.90;;;;;;;-128.00;-1.00;-1.00;105693;1251;1004412;-72
2023/05/24 08:44:52;;;;;;;15.60;14.20;;;;;;;-128.00;-1.00;-1.00;105748;1251;1005780;-72
2023/05/24 08:47:22;;;;;;;16.50;15.00;;;;;;;-128.00;-1.00;-1.00;105403;1256;1046217;-72
2023/05/24 08:49:50;;;;;;;18.30;16.60;;;;;;;-128.00;-1.00;-1.00;105684;1251;1047618;-71
2023/05/24 08:52:16;;;;;;;19.70;18.10;;;;;;;-128.00;-1.00;-1.00;105548;1251;1004611;-72
2023/05/24 08:54:43;;;;;;;19.20;17.50;;;;;;;-128.00;-1.00;-1.00;105712;1251;1004304;-72
2023/05/24 08:57:10;;;;;;;19.80;18.20;;;;;;;-128.00;-1.00;-1.00;105558;1251;1004650;-72
2023/05/24 08:59:41;;;;;;;20.00;18.20;;;;;;;-128.00;-1.00;-1.00;105662;1251;1004479;-71
2023/05/24 09:02:13;;;;;;;20.00;18.30;;;;;;;-128.00;-1.00;-1.00;105712;1251;1046662;-73
2023/05/24 09:04:43;;;;;;;19.60;17.80;;;;;;;-128.00;-1.00;-1.00;105403;1251;1062748;-72
2023/05/24 09:07:12;;;;;;;19.30;17.70;;;;;;;-128.00;-1.00;-1.00;105697;1251;1056012;-72
2023/05/24 09:09:44;;;;;;;18.80;17.20;;;;;;;-128.00;-1.00;-1.00;105685;1251;1058362;-71
2023/05/24 09:12:14;;;;;;;18.10;16.50;;;;;;;-128.00;-1.00;-1.00;105625;1251;1046180;-72
2023/05/24 09:14:48;;;;;;;15.40;14.10;;;;;;;-128.00;-1.00;-1.00;105684;1251;1047246;-72
2023/05/24 09:17:15;;;;;;;12.60;11.40;;;;;;;-128.00;-1.00;-1.00;105722;1251;1064010;-73
2023/05/24 09:19:45;;;;;;;10.80;9.80;;;;;;;-128.00;-1.00;-1.00;105621;1251;1004772;-72
2023/05/24 09:22:12;;;;;;;;;;;;;;;-128.00;-1.00;-1.00;105700;1251;1059061;-72
2023/05/24 09:24:42;;;;;;;11.30;10.30;;;;;;;-128.00;-1.00;-1.00;105549;1251;1004693;-72
2023/05/24 09:27:09;;;;;;;11.90;10.90;;;;;;;-128.00;-1.00;-1.00;105628;1251;1046710;-72
2023/05/24 09:29:40;;;;;;;12.10;11.10;;;;;;;-128.00;-1.00;-1.00;105696;1251;1003795;-72
2023/05/24 09:32:07;;;;;;;13.40;12.20;;;;;;;-128.00;-1.00;-1.00;105711;1251;1056919;-72
2023/05/24 09:34:40;;;;;;;11.50;10.50;;;;;;;-128.00;-1.00;-1.00;105723;1251;1004804;-72
2023/05/24 09:37:15;;;;;;;12.00;10.90;;;;;;;-128.00;-1.00;-1.00;105657;1251;1045338;-72
2023/05/24 09:39:43;;;;;;;13.10;11.90;;;;;;;-128.00;-1.00;-1.00;105698;1251;1046803;-72
2023/05/24 09:42:19;;;;;;;12.10;11.00;;;;;;;-128.00;-1.00;-1.00;105698;1251;1004440;-72
2023/05/24 09:45:00;;;;;;;14.50;13.10;;;;;;;-128.00;-1.00;-1.00;105682;1251;1055968;-72
2023/05/24 09:47:28;;;;;;;13.20;12.00;;;;;;;-128.00;-1.00;-1.00;105705;1251;1059101;-72
2023/05/24 09:49:55;;;;;;;13.90;12.60;;;;;;;-128.00;-1.00;-1.00;105585;1251;1004316;-72
2023/05/24 09:52:21;;;;;;;12.30;11.20;;;;;;;-128.00;-1.00;-1.00;105691;1251;1004688;-72
2023/05/24 09:54:48;;;;;;;11.50;10.50;;;;;;;-128.00;-1.00;-1.00;105697;1251;1004411;-72
2023/05/24 09:57:16;;;;;;;11.40;9.60;;;;;;;-128.00;-1.00;-1.00;105726;1251;1004167;-72
2023/05/24 09:59:43;;;;;;;10.30;9.40;;;;;;;-128.00;-1.00;-1.00;105719;1251;1003911;-72
2023/05/24 10:02:11;;;;;;;9.10;8.30;;;;;;;-128.00;-1.00;-1.00;105729;1251;1003673;-72
2023/05/24 10:04:38;;;;;;;9.60;8.60;;;;;;;-128.00;-1.00;-1.00;105762;1251;1003606;-72
2023/05/24 10:07:06;;;;;;;10.30;8.30;;;;;;;-128.00;-1.00;-1.00;105703;1251;1004498;-72
2023/05/24 10:09:35;;;;;;;10.90;9.90;;;;;;;-128.00;-1.00;-1.00;105705;1251;1004064;-72
2023/05/24 10:12:03;;;;;;;10.50;9.20;;;;;;;-128.00;-1.00;-1.00;105691;1251;1059188;-72
2023/05/24 10:14:37;;;;;;;11.70;10.50;;;;;;;-128.00;-1.00;-1.00;105697;1251;1045616;-72
2023/05/24 10:17:05;;;;;;;11.30;10.20;;;;;;;-128.00;-1.00;-1.00;105720;1251;1046895;-72
2023/05/24 10:19:36;;;;;;;8.40;7.60;;;;;;;-128.00;-1.00;-1.00;105537;1251;1005071;-72
2023/05/24 10:22:07;;;;;;;9.10;8.20;;;;;;;-128.00;-1.00;-1.00;105712;1251;1055772;-71
2023/05/24 10:24:45;;;;;;;8.50;7.70;;;;;;;-128.00;-1.00;-1.00;105738;1251;1059102;-73
2023/05/24 10:27:22;;;;;;;8.20;6.80;;;;;;;-128.00;-1.00;-1.00;105683;1251;1046305;-72
2023/05/24 10:30:04;;;;;;;9.00;7.90;;;;;;;-128.00;-1.00;-1.00;105715;1251;1047075;-73
2023/05/24 10:32:34;;;;;;;8.80;7.90;;;;;;;-128.00;-1.00;-1.00;105690;1251;1062862;-73
2023/05/24 10:35:23;;;;;;;8.20;7.10;;;;;;;-128.00;-1.00;-1.00;105713;1251;1055139;-72
2023/05/24 10:37:50;;;;;;;7.90;7.10;;;;;;;-128.00;-1.00;-1.00;105490;1254;1058724;-72
2023/05/24 10:40:24;;;;;;;8.50;7.60;;;;;;;-128.00;-1.00;-1.00;105481;1254;1003933;-71
2023/05/24 10:42:52;;;;;;;8.70;7.90;;;;;;;-128.00;-1.00;-1.00;105324;1254;1046681;-72
2023/05/24 10:45:24;;;;;;;9.10;8.20;;;;;;;-128.00;-1.00;-1.00;105516;1254;1004001;-72
2023/05/24 10:47:52;;;;;;;10.10;8.90;;;;;;;-128.00;-1.00;-1.00;105495;1254;1056441;-73
2023/05/24 10:50:20;;;;;;;10.80;9.80;;;;;;;-128.00;-1.00;-1.00;105481;1254;1004108;-71
2023/05/24 10:52:49;;;;;;;11.40;10.30;;;;;;;-128.00;-1.00;-1.00;105471;1254;1003755;-72
2023/05/24 10:55:18;;;;;;;10.40;9.40;;;;;;;-128.00;-1.00;-1.00;105496;1254;1047578;-72
2023/05/24 10:57:45;;;;;;;9.10;8.20;;;;;;;-128.00;-1.00;-1.00;105524;1254;1062625;-72
2023/05/24 11:00:23;;;;;;;8.10;7.30;;;;;;;-128.00;-1.00;-1.00;105521;1254;1003376;-73
2023/05/24 11:03:00;;;;;;;10.30;9.20;;;;;;;-128.00;-1.00;-1.00;105484;1254;1058723;-73
2023/05/24 11:05:46;;;;;;;10.40;9.40;;;;;;;-128.00;-1.00;-1.00;105267;1254;1047480;-72
2023/05/24 11:08:13;;;;;;;9.70;8.70;;;;;;;-128.00;-1.00;-1.00;105577;1251;1046541;-72